Time;durP1;ratioP1;P1;durP2;ratioP2;P2;SDS_P1;SDS_P2;PMS_P1;PMS_P2;Temp;Humidity;BMP_temperature;BMP_pressure;BME280_temperature;BME280_humidity;BME280_pressure;Samples;Min_cycle;Max_cycle;Signal;HPM_P1;HPM_P2
2022/01/08 00:01:31;;;;;;;0.55;0.25;;;;;;;;;;1783157;78;26337;-34
2022/01/08 00:03:58;;;;;;;0.53;0.37;;;;;;;;;;1783293;79;26235;-36
2022/01/08 00:06:26;;;;;;;1.22;0.20;;;;;;;;;;1781488;79;26282;-33
2022/01/08 00:08:53;;;;;;;0.20;0.20;;;;;;;;;;1782887;79;26348;-35
2022/01/08 00:11:25;;;;;;;0.23;0.23;;;;;;;;;;1785320;79;26279;-36
2022/01/08 00:13:50;;;;;;;0.17;0.17;;;;;;;;;;1778313;79;26475;-36
2022/01/08 00:16:17;;;;;;;0.20;0.20;;;;;;;;;;1781205;79;26673;-36
2022/01/08 00:18:44;;;;;;;1.05;0.20;;;;;;;;;;1782788;79;26395;-35
2022/01/08 00:21:13;;;;;;;0.30;0.30;;;;;;;;;;1783106;79;27322;-35
2022/01/08 00:23:40;;;;;;;0.23;0.23;;;;;;;;;;1782568;79;26702;-33
2022/01/08 00:26:07;;;;;;;0.40;0.20;;;;;;;;;;1781923;79;26239;-35
2022/01/08 00:28:35;;;;;;;0.20;0.20;;;;;;;;;;1782531;79;26399;-34
2022/01/08 00:31:03;;;;;;;0.20;0.20;;;;;;;;;;1781606;79;26895;-34
2022/01/08 00:33:31;;;;;;;0.20;0.20;;;;;;;;;;1782273;79;26298;-33
2022/01/08 00:35:58;;;;;;;0.20;0.20;;;;;;;;;;1778474;79;26286;-37
2022/01/08 00:38:25;;;;;;;0.20;0.20;;;;;;;;;;1779631;79;26881;-34
2022/01/08 00:40:52;;;;;;;0.45;0.28;;;;;;;;;;1785265;79;26219;-34
2022/01/08 00:43:20;;;;;;;0.20;0.20;;;;;;;;;;1778839;79;26298;-34
2022/01/08 00:45:47;;;;;;;0.20;0.20;;;;;;;;;;1782034;79;26297;-33
2022/01/08 00:48:15;;;;;;;0.13;0.13;;;;;;;;;;1777641;79;26285;-34
2022/01/08 00:50:42;;;;;;;0.05;0.05;;;;;;;;;;1783952;79;26368;-36
2022/01/08 00:53:09;;;;;;;0.20;0.20;;;;;;;;;;1782755;79;26297;-35
2022/01/08 00:55:36;;;;;;;0.10;0.10;;;;;;;;;;1782327;79;26305;-33
2022/01/08 00:58:04;;;;;;;0.20;0.20;;;;;;;;;;1781968;79;26403;-34
2022/01/08 01:00:31;;;;;;;0.28;0.28;;;;;;;;;;1787134;79;26337;-34
2022/01/08 01:02:58;;;;;;;0.20;0.20;;;;;;;;;;1785793;79;26283;-34
2022/01/08 01:05:25;;;;;;;0.10;0.10;;;;;;;;;;1782014;79;26895;-35
2022/01/08 01:07:54;;;;;;;0.20;0.20;;;;;;;;;;1780500;79;26782;-34
2022/01/08 01:10:21;;;;;;;0.20;0.20;;;;;;;;;;1783578;79;26368;-36
2022/01/08 01:12:48;;;;;;;0.10;0.10;;;;;;;;;;1779357;79;26785;-36
2022/01/08 01:15:16;;;;;;;0.20;0.20;;;;;;;;;;1780452;79;26509;-34
2022/01/08 01:17:44;;;;;;;0.20;0.20;;;;;;;;;;1781118;79;26809;-35
2022/01/08 01:20:14;;;;;;;0.20;0.20;;;;;;;;;;1784350;79;26700;-34
2022/01/08 01:23:09;;;;;;;0.10;0.10;;;;;;;;;;1783526;79;26318;-34
2022/01/08 01:25:14;;;;;;;0.10;0.10;;;;;;;;;;1772684;79;26462;-35
2022/01/08 01:30:32;;;;;;;0.20;0.13;;;;;;;;;;1751331;79;26750;-33
2022/01/08 01:41:18;;;;;;;0.10;0.10;;;;;;;;;;1779525;79;26307;-34
2022/01/08 01:47:00;;;;;;;0.80;0.10;;;;;;;;;;1779442;79;26837;-33
2022/01/08 01:48:52;;;;;;;0.10;0.10;;;;;;;;;;1784433;79;26318;-33
2022/01/08 01:51:20;;;;;;;0.10;0.10;;;;;;;;;;1780457;79;26803;-35
2022/01/08 01:53:49;;;;;;;0.10;0.10;;;;;;;;;;1782054;79;26266;-34
2022/01/08 01:56:17;;;;;;;0.42;0.42;;;;;;;;;;1783310;79;26284;-34
2022/01/08 01:58:44;;;;;;;0.10;0.10;;;;;;;;;;1785544;79;26688;-34
2022/01/08 02:01:12;;;;;;;0.20;0.20;;;;;;;;;;1781539;79;26300;-34
2022/01/08 02:03:43;;;;;;;0.30;0.20;;;;;;;;;;1781400;79;26387;-34
2022/01/08 02:06:09;;;;;;;0.10;0.10;;;;;;;;;;1783446;79;26750;-37
2022/01/08 02:08:42;;;;;;;0.10;0.10;;;;;;;;;;1781449;79;26266;-36
2022/01/08 02:11:07;;;;;;;0.03;0.03;;;;;;;;;;1784217;79;26377;-35
2022/01/08 02:13:35;;;;;;;0.35;0.20;;;;;;;;;;1780053;79;26409;-35
2022/01/08 02:16:05;;;;;;;0.10;0.10;;;;;;;;;;1780428;79;26376;-35
2022/01/08 02:18:34;;;;;;;0.10;0.10;;;;;;;;;;1777728;79;26465;-35
2022/01/08 02:21:02;;;;;;;0.10;0.10;;;;;;;;;;1779068;79;26424;-34
2022/01/08 02:23:30;;;;;;;0.20;0.20;;;;;;;;;;1781309;79;26259;-34
2022/01/08 02:26:05;;;;;;;0.70;0.10;;;;;;;;;;1774526;79;26983;-35
2022/01/08 02:28:32;;;;;;;1.75;0.20;;;;;;;;;;1781677;80;26423;-36
2022/01/08 02:31:00;;;;;;;0.10;0.10;;;;;;;;;;1775948;79;26242;-33
2022/01/08 02:33:28;;;;;;;0.13;0.10;;;;;;;;;;1776271;80;26363;-34
2022/01/08 02:35:55;;;;;;;0.10;0.10;;;;;;;;;;1781345;79;25496;-34
2022/01/08 02:38:23;;;;;;;0.10;0.10;;;;;;;;;;1779262;79;26243;-34
2022/01/08 02:40:56;;;;;;;0.17;0.17;;;;;;;;;;1745954;80;26840;-36
2022/01/08 02:43:20;;;;;;;0.10;0.10;;;;;;;;;;1748150;80;26317;-34
2022/01/08 02:45:48;;;;;;;0.17;0.17;;;;;;;;;;1751515;80;26824;-34
2022/01/08 02:48:15;;;;;;;0.10;0.10;;;;;;;;;;1751418;80;26674;-34
2022/01/08 02:50:42;;;;;;;0.05;0.05;;;;;;;;;;1754928;80;26286;-36
2022/01/08 02:53:10;;;;;;;0.10;0.10;;;;;;;;;;1750375;80;26351;-35
2022/01/08 02:55:37;;;;;;;0.20;0.20;;;;;;;;;;1749464;80;26995;-33
2022/01/08 02:58:04;;;;;;;0.10;0.10;;;;;;;;;;1752190;80;26845;-36
2022/01/08 03:00:31;;;;;;;0.10;0.10;;;;;;;;;;1753014;80;26788;-33
2022/01/08 03:02:59;;;;;;;0.30;0.20;;;;;;;;;;1751261;80;26383;-34
2022/01/08 03:05:27;;;;;;;0.10;0.10;;;;;;;;;;1748813;80;26650;-34
2022/01/08 03:07:55;;;;;;;0.10;0.10;;;;;;;;;;1749084;80;26805;-36
2022/01/08 03:10:22;;;;;;;0.10;0.10;;;;;;;;;;1753518;80;26718;-35
2022/01/08 03:12:50;;;;;;;0.28;0.20;;;;;;;;;;1750004;80;26380;-33
2022/01/08 03:15:18;;;;;;;0.05;0.05;;;;;;;;;;1750594;80;26800;-34
2022/01/08 03:17:46;;;;;;;0.10;0.10;;;;;;;;;;1752405;80;26278;-34
2022/01/08 03:20:14;;;;;;;3.00;0.10;;;;;;;;;;1747593;80;26368;-34
2022/01/08 03:22:43;;;;;;;0.10;0.10;;;;;;;;;;1752168;80;26269;-35
2022/01/08 03:25:12;;;;;;;0.20;0.20;;;;;;;;;;1752080;80;26250;-34
2022/01/08 03:27:41;;;;;;;0.20;0.20;;;;;;;;;;1749509;80;26813;-37
2022/01/08 03:30:09;;;;;;;0.10;0.10;;;;;;;;;;1748925;80;26309;-35
2022/01/08 03:32:36;;;;;;;0.20;0.20;;;;;;;;;;1749768;80;26387;-33
2022/01/08 03:35:04;;;;;;;0.10;0.10;;;;;;;;;;1746791;80;26745;-35
2022/01/08 03:37:32;;;;;;;0.08;0.08;;;;;;;;;;1752215;80;26483;-35
2022/01/08 03:39:59;;;;;;;0.15;0.15;;;;;;;;;;1761164;78;26805;-34
2022/01/08 03:42:26;;;;;;;0.10;0.10;;;;;;;;;;1778379;79;26766;-35
2022/01/08 03:44:53;;;;;;;0.10;0.10;;;;;;;;;;1779946;79;27363;-34
2022/01/08 03:48:17;;;;;;;0.10;0.10;;;;;;;;;;1775504;79;26218;-33
2022/01/08 03:49:53;;;;;;;2.95;0.20;;;;;;;;;;1763412;79;26243;-33
2022/01/08 03:52:20;;;;;;;0.30;0.10;;;;;;;;;;1776268;79;26282;-34
2022/01/08 03:54:47;;;;;;;0.05;0.05;;;;;;;;;;1776447;79;26424;-34
2022/01/08 03:57:15;;;;;;;0.10;0.10;;;;;;;;;;1782470;79;26234;-36
2022/01/08 03:59:42;;;;;;;1.27;0.10;;;;;;;;;;1780243;79;26377;-36
2022/01/08 04:02:09;;;;;;;1.17;0.10;;;;;;;;;;1779197;79;26815;-34
2022/01/08 04:04:37;;;;;;;0.00;0.00;;;;;;;;;;1783626;79;26337;-34
2022/01/08 04:07:04;;;;;;;0.10;0.10;;;;;;;;;;1777999;79;26348;-36
2022/01/08 04:09:31;;;;;;;0.17;0.17;;;;;;;;;;1777198;79;26376;-36
2022/01/08 04:11:59;;;;;;;0.30;0.10;;;;;;;;;;1782253;79;26344;-34
2022/01/08 04:14:35;;;;;;;0.80;0.00;;;;;;;;;;1777719;79;26424;-34
2022/01/08 04:16:55;;;;;;;0.00;0.00;;;;;;;;;;1774369;79;26419;-36
2022/01/08 04:19:23;;;;;;;0.78;0.10;;;;;;;;;;1781893;79;26392;-35
2022/01/08 04:21:59;;;;;;;0.10;0.10;;;;;;;;;;1773322;79;26314;-35
2022/01/08 04:24:19;;;;;;;0.10;0.10;;;;;;;;;;1776321;79;26785;-35
2022/01/08 04:26:47;;;;;;;0.10;0.10;;;;;;;;;;1777538;79;26349;-36
2022/01/08 04:29:14;;;;;;;0.08;0.08;;;;;;;;;;1777665;79;26322;-36
2022/01/08 04:31:41;;;;;;;0.10;0.10;;;;;;;;;;1776782;79;26344;-35
2022/01/08 04:34:08;;;;;;;0.15;0.15;;;;;;;;;;1778848;79;26401;-34
2022/01/08 04:36:36;;;;;;;0.10;0.10;;;;;;;;;;1779798;79;26963;-36
2022/01/08 04:39:03;;;;;;;0.03;0.03;;;;;;;;;;1779076;79;26830;-33
2022/01/08 04:41:30;;;;;;;0.33;0.08;;;;;;;;;;1758726;79;26321;-34
2022/01/08 04:43:58;;;;;;;0.20;0.20;;;;;;;;;;1763737;79;26291;-33
2022/01/08 04:46:25;;;;;;;1.05;0.10;;;;;;;;;;1759814;79;26290;-34
2022/01/08 04:48:52;;;;;;;0.13;0.13;;;;;;;;;;1762649;79;26779;-33
2022/01/08 04:51:19;;;;;;;0.10;0.10;;;;;;;;;;1761964;79;26276;-33
2022/01/08 04:53:47;;;;;;;0.20;0.20;;;;;;;;;;1760344;79;26295;-34
2022/01/08 04:56:14;;;;;;;0.10;0.10;;;;;;;;;;1760288;79;26319;-36
2022/01/08 04:58:41;;;;;;;0.23;0.23;;;;;;;;;;1760956;79;26327;-34
2022/01/08 05:01:10;;;;;;;0.20;0.20;;;;;;;;;;1763570;79;26861;-34
2022/01/08 05:03:37;;;;;;;0.00;0.00;;;;;;;;;;1759276;79;26302;-34
2022/01/08 05:06:05;;;;;;;0.10;0.10;;;;;;;;;;1760556;79;26274;-34
2022/01/08 05:08:32;;;;;;;0.05;0.05;;;;;;;;;;1761300;79;26356;-35
2022/01/08 05:10:59;;;;;;;0.28;0.15;;;;;;;;;;1759948;79;26832;-34
2022/01/08 05:13:26;;;;;;;0.17;0.00;;;;;;;;;;1762765;79;26873;-34
2022/01/08 05:15:54;;;;;;;0.23;0.20;;;;;;;;;;1760753;79;26815;-34
2022/01/08 05:18:22;;;;;;;0.10;0.10;;;;;;;;;;1760108;79;26286;-35
2022/01/08 05:21:05;;;;;;;0.10;0.10;;;;;;;;;;1756608;79;26572;-34
2022/01/08 05:23:21;;;;;;;0.17;0.17;;;;;;;;;;1754705;79;26306;-34
2022/01/08 05:25:49;;;;;;;0.10;0.10;;;;;;;;;;1760584;79;26319;-34
2022/01/08 05:28:16;;;;;;;0.10;0.10;;;;;;;;;;1756774;79;25634;-36
2022/01/08 05:30:43;;;;;;;0.10;0.10;;;;;;;;;;1761965;79;27504;-35
2022/01/08 05:33:11;;;;;;;0.10;0.10;;;;;;;;;;1760353;79;26315;-36
2022/01/08 05:35:38;;;;;;;0.10;0.10;;;;;;;;;;1763339;79;26339;-34
2022/01/08 05:38:05;;;;;;;0.10;0.10;;;;;;;;;;1765828;79;26353;-33
2022/01/08 05:40:33;;;;;;;0.10;0.10;;;;;;;;;;1764298;79;26323;-33
2022/01/08 05:43:00;;;;;;;0.10;0.10;;;;;;;;;;1762525;79;26287;-35
2022/01/08 05:45:27;;;;;;;0.15;0.15;;;;;;;;;;1761308;80;26427;-34
2022/01/08 05:47:54;;;;;;;1.05;0.20;;;;;;;;;;1763587;79;26354;-35
2022/01/08 05:50:22;;;;;;;0.30;0.30;;;;;;;;;;1757775;79;26298;-34
2022/01/08 05:52:49;;;;;;;0.08;0.08;;;;;;;;;;1761677;79;25461;-34
2022/01/08 05:55:17;;;;;;;0.17;0.17;;;;;;;;;;1760401;80;26653;-34
2022/01/08 05:57:45;;;;;;;0.17;0.17;;;;;;;;;;1764097;80;26879;-34
2022/01/08 06:00:12;;;;;;;0.20;0.20;;;;;;;;;;1769913;79;26322;-36
2022/01/08 06:02:40;;;;;;;0.10;0.10;;;;;;;;;;1762573;80;26369;-34
2022/01/08 06:05:08;;;;;;;0.10;0.10;;;;;;;;;;1761082;80;26326;-36
2022/01/08 06:07:36;;;;;;;0.20;0.20;;;;;;;;;;1758474;80;27528;-34
2022/01/08 06:10:03;;;;;;;0.00;0.00;;;;;;;;;;1767120;80;26401;-36
2022/01/08 06:12:31;;;;;;;0.10;0.10;;;;;;;;;;1763773;80;26672;-36
2022/01/08 06:14:58;;;;;;;0.20;0.20;;;;;;;;;;1762949;80;26396;-34
2022/01/08 06:17:26;;;;;;;0.17;0.17;;;;;;;;;;1761700;79;26303;-34
2022/01/08 06:19:53;;;;;;;0.20;0.20;;;;;;;;;;1765135;80;26252;-34
2022/01/08 06:22:20;;;;;;;0.08;0.08;;;;;;;;;;1771892;80;26323;-34
2022/01/08 06:24:48;;;;;;;0.10;0.10;;;;;;;;;;1766964;80;26279;-34
2022/01/08 06:27:15;;;;;;;0.00;0.00;;;;;;;;;;1765239;80;26747;-34
2022/01/08 06:29:42;;;;;;;0.00;0.00;;;;;;;;;;1764652;80;26748;-34
2022/01/08 06:32:09;;;;;;;0.10;0.10;;;;;;;;;;1763415;80;26835;-35
2022/01/08 06:34:37;;;;;;;0.10;0.10;;;;;;;;;;1761063;80;26287;-34
2022/01/08 06:37:04;;;;;;;0.20;0.20;;;;;;;;;;1766548;80;26728;-34
2022/01/08 06:39:31;;;;;;;0.10;0.10;;;;;;;;;;1766823;79;26368;-34
2022/01/08 06:41:59;;;;;;;1.15;0.10;;;;;;;;;;1773779;79;26388;-35
2022/01/08 06:44:26;;;;;;;0.10;0.10;;;;;;;;;;1783277;79;26294;-34
2022/01/08 06:46:54;;;;;;;0.10;0.10;;;;;;;;;;1784332;79;26345;-33
2022/01/08 06:49:21;;;;;;;0.10;0.10;;;;;;;;;;1781019;79;26294;-36
2022/01/08 06:51:50;;;;;;;0.10;0.10;;;;;;;;;;1781692;79;26400;-33
2022/01/08 06:54:17;;;;;;;0.10;0.10;;;;;;;;;;1781622;79;26290;-33
2022/01/08 06:56:45;;;;;;;0.10;0.10;;;;;;;;;;1781796;79;26758;-34
2022/01/08 06:59:12;;;;;;;0.10;0.10;;;;;;;;;;1779359;79;26329;-35
2022/01/08 07:01:39;;;;;;;0.10;0.10;;;;;;;;;;1782147;79;26759;-34
2022/01/08 07:04:07;;;;;;;0.10;0.10;;;;;;;;;;1783664;79;26894;-33
2022/01/08 07:06:34;;;;;;;0.10;0.10;;;;;;;;;;1781343;79;26313;-34
2022/01/08 07:09:01;;;;;;;0.15;0.15;;;;;;;;;;1786945;79;26392;-34
2022/01/08 07:11:29;;;;;;;0.10;0.10;;;;;;;;;;1783200;79;26369;-32
2022/01/08 07:13:56;;;;;;;0.13;0.13;;;;;;;;;;1784062;79;26330;-34
2022/01/08 07:16:24;;;;;;;0.10;0.10;;;;;;;;;;1779397;79;26319;-36
2022/01/08 07:18:51;;;;;;;0.08;0.08;;;;;;;;;;1786113;79;26321;-36
2022/01/08 07:21:18;;;;;;;0.10;0.10;;;;;;;;;;1782891;79;26277;-36
2022/01/08 07:23:45;;;;;;;0.20;0.20;;;;;;;;;;1781344;79;26375;-35
2022/01/08 07:26:13;;;;;;;0.10;0.10;;;;;;;;;;1781746;79;26285;-34
2022/01/08 07:28:40;;;;;;;0.20;0.20;;;;;;;;;;1782266;79;26278;-36
2022/01/08 07:31:07;;;;;;;0.13;0.13;;;;;;;;;;1784370;79;26835;-34
2022/01/08 07:33:35;;;;;;;0.10;0.10;;;;;;;;;;1782963;79;26750;-33
2022/01/08 07:36:02;;;;;;;0.20;0.20;;;;;;;;;;1782748;79;26369;-34
2022/01/08 07:38:29;;;;;;;0.10;0.10;;;;;;;;;;1780759;79;26301;-34
2022/01/08 07:40:57;;;;;;;0.10;0.10;;;;;;;;;;1780287;79;26853;-34
2022/01/08 07:43:24;;;;;;;0.10;0.10;;;;;;;;;;1780623;79;26797;-33
2022/01/08 07:45:51;;;;;;;0.10;0.10;;;;;;;;;;1779344;79;26570;-34
2022/01/08 07:48:18;;;;;;;0.10;0.10;;;;;;;;;;1781906;79;26267;-34
2022/01/08 07:50:46;;;;;;;0.23;0.23;;;;;;;;;;1784411;79;26368;-34
2022/01/08 07:53:13;;;;;;;0.20;0.20;;;;;;;;;;1779553;79;26270;-34
2022/01/08 07:55:40;;;;;;;0.10;0.10;;;;;;;;;;1777147;79;26318;-35
2022/01/08 07:58:08;;;;;;;0.10;0.10;;;;;;;;;;1776127;79;26367;-34
2022/01/08 08:00:35;;;;;;;0.15;0.15;;;;;;;;;;1777267;79;27529;-33
2022/01/08 08:03:03;;;;;;;0.20;0.20;;;;;;;;;;1777479;79;26301;-36
2022/01/08 08:05:31;;;;;;;0.10;0.10;;;;;;;;;;1778964;79;26400;-36
2022/01/08 08:07:59;;;;;;;0.10;0.10;;;;;;;;;;1779141;79;26379;-34
2022/01/08 08:10:28;;;;;;;0.17;0.17;;;;;;;;;;1777182;79;26401;-34
2022/01/08 08:13:00;;;;;;;0.15;0.15;;;;;;;;;;1776636;79;26452;-36
2022/01/08 08:15:27;;;;;;;0.20;0.20;;;;;;;;;;1777860;79;26342;-36
2022/01/08 08:17:55;;;;;;;0.45;0.20;;;;;;;;;;1776979;79;26420;-34
2022/01/08 08:20:22;;;;;;;0.30;0.28;;;;;;;;;;1774982;79;26286;-36
2022/01/08 08:22:50;;;;;;;0.20;0.20;;;;;;;;;;1773674;79;26325;-35
2022/01/08 08:25:17;;;;;;;0.20;0.20;;;;;;;;;;1778253;79;26290;-35
2022/01/08 08:27:44;;;;;;;0.80;0.20;;;;;;;;;;1781393;79;26735;-34
2022/01/08 08:30:12;;;;;;;0.20;0.20;;;;;;;;;;1775318;79;26644;-35
2022/01/08 08:32:40;;;;;;;0.85;0.20;;;;;;;;;;1779100;79;26406;-34
2022/01/08 08:35:08;;;;;;;0.50;0.23;;;;;;;;;;1774224;79;26376;-36
2022/01/08 08:37:36;;;;;;;0.62;0.23;;;;;;;;;;1784906;79;27155;-35
2022/01/08 08:40:05;;;;;;;1.35;0.25;;;;;;;;;;1780066;79;26388;-34
2022/01/08 08:42:32;;;;;;;0.33;0.20;;;;;;;;;;1778140;79;26361;-33
2022/01/08 08:44:59;;;;;;;1.40;0.28;;;;;;;;;;1777164;79;26771;-34
2022/01/08 08:47:27;;;;;;;1.47;0.08;;;;;;;;;;1775184;79;26333;-34
2022/01/08 08:49:54;;;;;;;1.57;0.10;;;;;;;;;;1773947;79;26269;-33
2022/01/08 08:52:23;;;;;;;1.05;0.30;;;;;;;;;;1777011;79;26263;-34
2022/01/08 08:54:50;;;;;;;1.00;0.10;;;;;;;;;;1775930;79;26337;-36
2022/01/08 08:57:18;;;;;;;1.15;0.30;;;;;;;;;;1779609;79;26428;-34
2022/01/08 08:59:45;;;;;;;0.30;0.28;;;;;;;;;;1777571;79;26262;-37
2022/01/08 09:02:12;;;;;;;0.30;0.30;;;;;;;;;;1775466;79;26812;-34
2022/01/08 09:04:41;;;;;;;1.85;0.30;;;;;;;;;;1779771;79;26306;-36
2022/01/08 09:07:09;;;;;;;1.55;0.20;;;;;;;;;;1782106;79;26424;-36
2022/01/08 09:09:36;;;;;;;0.90;0.30;;;;;;;;;;1782131;79;26282;-33
2022/01/08 09:12:04;;;;;;;2.25;0.23;;;;;;;;;;1777440;79;26821;-33
2022/01/08 09:14:31;;;;;;;0.33;0.30;;;;;;;;;;1780699;79;26319;-34
2022/01/08 09:17:02;;;;;;;0.85;0.25;;;;;;;;;;1779991;79;26292;-36
2022/01/08 09:19:30;;;;;;;0.53;0.20;;;;;;;;;;1782182;79;26845;-34
2022/01/08 09:21:58;;;;;;;0.30;0.20;;;;;;;;;;1781660;79;26289;-34
2022/01/08 09:24:25;;;;;;;1.40;0.30;;;;;;;;;;1782981;79;26368;-35
2022/01/08 09:26:52;;;;;;;2.85;0.30;;;;;;;;;;1781164;80;26380;-34
2022/01/08 09:29:19;;;;;;;0.13;0.13;;;;;;;;;;1785058;79;26271;-35
2022/01/08 09:31:47;;;;;;;1.45;0.53;;;;;;;;;;1780857;79;26286;-34
2022/01/08 09:34:14;;;;;;;0.60;0.37;;;;;;;;;;1781592;79;26782;-35
2022/01/08 09:36:43;;;;;;;0.20;0.20;;;;;;;;;;1779602;79;26285;-33
2022/01/08 09:39:11;;;;;;;0.88;0.23;;;;;;;;;;1776625;79;26322;-33
2022/01/08 09:41:38;;;;;;;2.20;0.40;;;;;;;;;;1782346;79;26298;-36
2022/01/08 09:44:06;;;;;;;0.30;0.30;;;;;;;;;;1781510;79;26278;-34
2022/01/08 09:46:33;;;;;;;0.33;0.30;;;;;;;;;;1784395;79;26305;-35
2022/01/08 09:49:01;;;;;;;0.30;0.30;;;;;;;;;;1781055;79;26735;-34
2022/01/08 09:51:28;;;;;;;0.30;0.30;;;;;;;;;;1786041;79;26396;-33
2022/01/08 09:53:56;;;;;;;0.40;0.40;;;;;;;;;;1783295;79;27254;-34
2022/01/08 09:56:25;;;;;;;0.33;0.30;;;;;;;;;;1780303;79;26315;-35
2022/01/08 09:58:53;;;;;;;0.65;0.33;;;;;;;;;;1782125;79;26359;-34
2022/01/08 10:01:25;;;;;;;0.50;0.40;;;;;;;;;;1781945;79;26401;-35
2022/01/08 10:03:53;;;;;;;0.20;0.20;;;;;;;;;;1781248;79;26423;-33
2022/01/08 10:06:24;;;;;;;0.72;0.30;;;;;;;;;;1783309;79;26231;-35
2022/01/08 10:08:52;;;;;;;0.20;0.20;;;;;;;;;;1783918;79;26282;-33
2022/01/08 10:11:20;;;;;;;0.35;0.30;;;;;;;;;;1783504;79;26377;-34
2022/01/08 10:13:51;;;;;;;0.40;0.40;;;;;;;;;;1780423;79;26439;-35
2022/01/08 10:19:05;;;;;;;0.30;0.30;;;;;;;;;;1782594;79;26311;-34
2022/01/08 10:21:36;;;;;;;0.35;0.35;;;;;;;;;;1778076;79;26310;-34
2022/01/08 10:24:04;;;;;;;0.30;0.30;;;;;;;;;;1780196;79;26304;-35
2022/01/08 10:26:33;;;;;;;1.02;0.30;;;;;;;;;;1778008;79;26299;-33
2022/01/08 10:29:01;;;;;;;0.40;0.40;;;;;;;;;;1776593;79;26341;-35
2022/01/08 10:31:30;;;;;;;0.40;0.40;;;;;;;;;;1780525;79;26432;-33
2022/01/08 10:34:13;;;;;;;0.28;0.28;;;;;;;;;;1780635;79;26740;-30
2022/01/08 10:36:42;;;;;;;2.90;0.40;;;;;;;;;;1781006;79;26353;-30
2022/01/08 10:39:10;;;;;;;1.05;0.30;;;;;;;;;;1777997;79;27968;-31
2022/01/08 10:41:39;;;;;;;0.72;0.40;;;;;;;;;;1782879;79;26968;-28
2022/01/08 10:44:14;;;;;;;0.53;0.50;;;;;;;;;;1778933;79;26333;-30
2022/01/08 10:46:43;;;;;;;1.35;0.60;;;;;;;;;;1777586;79;26726;-30
2022/01/08 10:49:10;;;;;;;0.30;0.30;;;;;;;;;;1772870;79;26325;-30
2022/01/08 10:51:39;;;;;;;0.47;0.47;;;;;;;;;;1777270;79;26314;-30
2022/01/08 10:54:15;;;;;;;0.65;0.53;;;;;;;;;;1779849;79;26309;-34
2022/01/08 10:56:43;;;;;;;0.50;0.50;;;;;;;;;;1776583;79;26317;-33
2022/01/08 10:59:12;;;;;;;0.50;0.50;;;;;;;;;;1778897;79;25656;-31
2022/01/08 11:01:43;;;;;;;0.42;0.42;;;;;;;;;;1776715;78;26345;-37
2022/01/08 11:04:12;;;;;;;0.75;0.72;;;;;;;;;;1780686;79;26333;-35
2022/01/08 11:06:41;;;;;;;1.32;0.50;;;;;;;;;;1781324;79;26350;-33
2022/01/08 11:09:08;;;;;;;0.57;0.50;;;;;;;;;;1782782;79;26343;-35
2022/01/08 11:11:36;;;;;;;0.47;0.47;;;;;;;;;;1780357;79;26294;-32
2022/01/08 11:14:05;;;;;;;0.60;0.60;;;;;;;;;;1781835;79;26323;-33
2022/01/08 11:16:33;;;;;;;0.40;0.40;;;;;;;;;;1783356;79;26280;-35
2022/01/08 11:19:01;;;;;;;0.80;0.55;;;;;;;;;;1783053;79;26944;-37
2022/01/08 11:21:30;;;;;;;0.57;0.57;;;;;;;;;;1783239;79;26755;-34
2022/01/08 11:24:00;;;;;;;0.57;0.57;;;;;;;;;;1783895;79;26718;-34
2022/01/08 11:26:27;;;;;;;1.30;0.80;;;;;;;;;;1784360;79;25671;-32
2022/01/08 11:28:56;;;;;;;0.57;0.57;;;;;;;;;;1784429;79;26325;-31
2022/01/08 11:31:25;;;;;;;0.40;0.40;;;;;;;;;;1781926;80;26275;-35
2022/01/08 11:33:56;;;;;;;0.55;0.55;;;;;;;;;;1779884;79;26345;-38
2022/01/08 11:36:23;;;;;;;0.57;0.57;;;;;;;;;;1785059;79;26468;-37
2022/01/08 11:38:51;;;;;;;0.40;0.40;;;;;;;;;;1778909;79;26258;-32
2022/01/08 11:41:18;;;;;;;0.65;0.65;;;;;;;;;;1782773;79;26365;-33
2022/01/08 11:43:49;;;;;;;0.65;0.65;;;;;;;;;;1781513;79;26294;-32
2022/01/08 11:46:16;;;;;;;0.42;0.42;;;;;;;;;;1782258;79;26389;-36
2022/01/08 11:48:44;;;;;;;1.00;0.57;;;;;;;;;;1782190;79;26374;-33
2022/01/08 11:51:19;;;;;;;0.70;0.70;;;;;;;;;;1784848;79;26796;-31
2022/01/08 11:53:51;;;;;;;1.07;0.60;;;;;;;;;;1777441;79;26290;-33
2022/01/08 11:56:22;;;;;;;0.68;0.68;;;;;;;;;;1783324;79;26819;-33
2022/01/08 11:59:03;;;;;;;0.50;0.50;;;;;;;;;;1776065;79;26845;-36
2022/01/08 12:01:30;;;;;;;0.50;0.50;;;;;;;;;;1784598;79;26350;-33
2022/01/08 12:03:57;;;;;;;0.60;0.60;;;;;;;;;;1779939;79;26247;-34
2022/01/08 12:06:29;;;;;;;0.40;0.40;;;;;;;;;;1777384;79;26298;-35
2022/01/08 12:09:15;;;;;;;0.60;0.60;;;;;;;;;;1783829;79;26318;-32
2022/01/08 12:11:45;;;;;;;0.60;0.60;;;;;;;;;;1772491;79;26398;-32
2022/01/08 12:14:14;;;;;;;0.50;0.50;;;;;;;;;;1779375;79;26330;-35
2022/01/08 12:16:42;;;;;;;0.60;0.60;;;;;;;;;;1774164;79;26352;-33
2022/01/08 12:19:11;;;;;;;0.50;0.50;;;;;;;;;;1779750;79;27535;-34
2022/01/08 12:21:42;;;;;;;0.60;0.60;;;;;;;;;;1769832;79;26920;-34
2022/01/08 12:24:30;;;;;;;0.60;0.60;;;;;;;;;;1777397;79;26368;-31
2022/01/08 12:27:01;;;;;;;0.50;0.50;;;;;;;;;;1779406;79;26338;-37
2022/01/08 12:29:36;;;;;;;1.35;0.50;;;;;;;;;;1780939;79;26268;-32
2022/01/08 12:32:28;;;;;;;0.60;0.60;;;;;;;;;;1777606;79;26770;-37
2022/01/08 12:35:01;;;;;;;0.60;0.60;;;;;;;;;;1778367;79;26312;-31
2022/01/08 12:37:22;;;;;;;0.62;0.62;;;;;;;;;;1774516;79;26354;-34
2022/01/08 12:39:51;;;;;;;0.70;0.70;;;;;;;;;;1781056;79;26601;-33
2022/01/08 12:42:23;;;;;;;0.50;0.50;;;;;;;;;;1783843;79;26312;-33
2022/01/08 12:45:02;;;;;;;0.57;0.57;;;;;;;;;;1783776;79;26809;-34
2022/01/08 12:47:43;;;;;;;0.82;0.82;;;;;;;;;;1782081;80;26575;-34
2022/01/08 12:50:17;;;;;;;0.60;0.60;;;;;;;;;;1781056;79;26743;-34
2022/01/08 12:53:02;;;;;;;0.60;0.60;;;;;;;;;;1782563;79;27378;-34
2022/01/08 12:55:40;;;;;;;0.57;0.57;;;;;;;;;;1781396;79;26286;-31
2022/01/08 12:58:13;;;;;;;0.60;0.60;;;;;;;;;;1782903;79;26839;-31
2022/01/08 13:00:58;;;;;;;0.72;0.72;;;;;;;;;;1782876;79;26338;-34
2022/01/08 13:03:28;;;;;;;1.67;0.80;;;;;;;;;;1776519;79;26696;-35
2022/01/08 13:05:57;;;;;;;0.50;0.50;;;;;;;;;;1783543;79;26584;-30
2022/01/08 13:08:26;;;;;;;0.62;0.62;;;;;;;;;;1782353;80;26283;-37
2022/01/08 13:10:59;;;;;;;0.93;0.60;;;;;;;;;;1779083;79;27281;-39
2022/01/08 13:13:26;;;;;;;0.60;0.60;;;;;;;;;;1778453;79;26381;-34
2022/01/08 13:15:54;;;;;;;0.50;0.50;;;;;;;;;;1773459;79;26294;-33
2022/01/08 13:18:24;;;;;;;0.62;0.62;;;;;;;;;;1776983;79;26694;-35
2022/01/08 13:21:01;;;;;;;0.60;0.60;;;;;;;;;;1778704;79;26328;-32
2022/01/08 13:23:28;;;;;;;0.70;0.70;;;;;;;;;;1777068;79;26321;-35
2022/01/08 13:25:57;;;;;;;0.60;0.60;;;;;;;;;;1776697;80;26871;-34
2022/01/08 13:28:25;;;;;;;0.75;0.75;;;;;;;;;;1778014;79;26888;-35
2022/01/08 13:30:54;;;;;;;0.62;0.62;;;;;;;;;;1778861;79;26294;-33
2022/01/08 13:33:29;;;;;;;0.70;0.70;;;;;;;;;;1782190;79;26278;-33
2022/01/08 13:36:03;;;;;;;0.70;0.70;;;;;;;;;;1781376;79;26278;-32
2022/01/08 13:38:31;;;;;;;0.80;0.80;;;;;;;;;;1774421;79;26417;-33
2022/01/08 13:41:00;;;;;;;0.80;0.80;;;;;;;;;;1777525;79;26380;-37
2022/01/08 13:43:29;;;;;;;0.82;0.82;;;;;;;;;;1775594;79;26871;-35
2022/01/08 13:45:56;;;;;;;0.60;0.60;;;;;;;;;;1777844;79;26746;-31
2022/01/08 13:48:23;;;;;;;0.70;0.70;;;;;;;;;;1781830;79;26754;-36
2022/01/08 13:50:57;;;;;;;0.80;0.80;;;;;;;;;;1779031;79;26714;-36
2022/01/08 13:53:21;;;;;;;0.70;0.70;;;;;;;;;;1778605;79;26413;-34
2022/01/08 13:55:50;;;;;;;1.62;0.80;;;;;;;;;;1776966;79;26338;-34
2022/01/08 13:58:19;;;;;;;0.90;0.90;;;;;;;;;;1780809;79;26093;-35
2022/01/08 14:00:47;;;;;;;0.65;0.65;;;;;;;;;;1776357;79;26278;-33
2022/01/08 14:03:22;;;;;;;0.80;0.80;;;;;;;;;;1778857;79;26418;-33
2022/01/08 14:05:51;;;;;;;0.75;0.75;;;;;;;;;;1777973;79;26381;-36
2022/01/08 14:08:19;;;;;;;0.70;0.70;;;;;;;;;;1775220;79;26347;-32
2022/01/08 14:10:47;;;;;;;0.60;0.60;;;;;;;;;;1785794;79;26353;-33
2022/01/08 14:13:18;;;;;;;0.90;0.90;;;;;;;;;;1782196;79;26773;-33
2022/01/08 14:15:49;;;;;;;1.05;0.60;;;;;;;;;;1777132;79;26358;-31
2022/01/08 14:18:17;;;;;;;0.70;0.70;;;;;;;;;;1784638;79;26342;-33
2022/01/08 14:20:45;;;;;;;0.70;0.70;;;;;;;;;;1778647;79;26335;-34
2022/01/08 14:23:17;;;;;;;0.80;0.80;;;;;;;;;;1779082;79;26275;-34
2022/01/08 14:25:45;;;;;;;0.70;0.70;;;;;;;;;;1782536;79;27006;-35
2022/01/08 14:28:20;;;;;;;0.90;0.90;;;;;;;;;;1784133;79;26402;-32
2022/01/08 14:30:49;;;;;;;0.70;0.70;;;;;;;;;;1781438;79;26805;-36
2022/01/08 14:33:16;;;;;;;0.75;0.75;;;;;;;;;;1779743;79;26401;-35
2022/01/08 14:35:44;;;;;;;0.90;0.90;;;;;;;;;;1782121;79;26279;-35
2022/01/08 14:38:11;;;;;;;0.70;0.70;;;;;;;;;;1783519;79;26302;-32
2022/01/08 14:40:40;;;;;;;0.80;0.80;;;;;;;;;;1778355;79;26385;-31
2022/01/08 14:43:10;;;;;;;1.20;0.90;;;;;;;;;;1782466;79;26290;-36
2022/01/08 14:45:39;;;;;;;0.90;0.90;;;;;;;;;;1772585;79;26779;-33
2022/01/08 14:48:20;;;;;;;1.65;0.80;;;;;;;;;;1763354;80;26228;-33
2022/01/08 14:50:47;;;;;;;0.80;0.80;;;;;;;;;;1764129;80;26728;-33
2022/01/08 14:53:16;;;;;;;0.88;0.88;;;;;;;;;;1765541;79;27008;-33
2022/01/08 14:55:45;;;;;;;0.80;0.80;;;;;;;;;;1764440;79;27282;-36
2022/01/08 14:58:13;;;;;;;0.90;0.90;;;;;;;;;;1761776;79;26346;-32
2022/01/08 15:00:41;;;;;;;1.35;0.80;;;;;;;;;;1761512;79;26373;-35
2022/01/08 15:03:08;;;;;;;1.10;0.90;;;;;;;;;;1756942;79;27041;-33
2022/01/08 15:05:35;;;;;;;0.90;0.90;;;;;;;;;;1762259;79;26380;-33
2022/01/08 15:08:02;;;;;;;0.90;0.90;;;;;;;;;;1762957;79;26354;-31